createdAt,value
2023-01-29T00:01:52.379Z,9.42
2023-01-29T00:07:01.315Z,9.33
2023-01-29T00:12:10.447Z,9.29
2023-01-29T00:17:19.354Z,9.07
2023-01-29T00:22:28.323Z,9.28
2023-01-29T00:27:36.807Z,9.79
2023-01-29T00:32:45.563Z,8.78
2023-01-29T00:37:54.459Z,8.64
2023-01-29T00:48:04.586Z,8.24
2023-01-29T00:53:13.667Z,8.45
2023-01-29T00:58:22.353Z,8.32
2023-01-29T01:03:31.882Z,7.94
2023-01-29T01:08:40.516Z,8.13
2023-01-29T01:13:49.799Z,8.16
2023-01-29T01:18:58.474Z,7.78
2023-01-29T01:24:07.500Z,7.34
2023-01-29T01:29:16.034Z,7.36
2023-01-29T01:34:25.645Z,7.78
2023-01-29T01:39:34.532Z,7.59
2023-01-29T01:44:44.076Z,7.85
2023-01-29T01:49:52.586Z,7.59
2023-01-29T01:55:02.394Z,7.55
2023-01-29T02:00:11.023Z,7.58
2023-01-29T02:05:20.583Z,7.71
2023-01-29T02:10:29.509Z,7.62
2023-01-29T02:15:38.497Z,7.56
2023-01-29T02:20:47.015Z,7.68
2023-01-29T02:25:56.505Z,7.72
2023-01-29T02:31:06.157Z,7.27
2023-01-29T02:36:15.024Z,7.40
2023-01-29T02:41:23.981Z,6.93
2023-01-29T02:46:32.713Z,7.10
2023-01-29T02:51:42.296Z,7.36
2023-01-29T02:56:51.705Z,7.23
2023-01-29T03:02:00.470Z,7.48
2023-01-29T03:07:09.243Z,9.38
2023-01-29T03:12:19.733Z,7.84
2023-01-29T03:17:26.255Z,7.62
2023-01-29T03:22:35.586Z,7.38
2023-01-29T03:27:44.658Z,7.23
2023-01-29T03:32:53.285Z,7.49
2023-01-29T03:38:02.274Z,7.19
2023-01-29T03:43:10.986Z,7.13
2023-01-29T03:48:20.198Z,7.38
2023-01-29T03:53:29.113Z,7.53
2023-01-29T03:58:38.728Z,7.29
2023-01-29T04:03:47.704Z,7.45
2023-01-29T04:08:56.640Z,7.23
2023-01-29T04:14:05.846Z,7.31
2023-01-29T04:19:14.854Z,7.35
2023-01-29T04:24:23.801Z,7.57
2023-01-29T04:29:33.576Z,7.54
2023-01-29T04:34:42.075Z,7.41
2023-01-29T04:39:50.857Z,7.38
2023-01-29T04:44:59.834Z,7.41
2023-01-29T04:50:09.078Z,7.11
2023-01-29T04:55:18.092Z,7.38
2023-01-29T05:00:27.157Z,7.50
2023-01-29T05:05:36.062Z,7.16
2023-01-29T05:10:45.582Z,7.63
2023-01-29T05:15:54.590Z,7.31
2023-01-29T05:21:04.274Z,7.14
2023-01-29T05:26:12.559Z,7.37
2023-01-29T05:31:21.653Z,7.50
2023-01-29T05:36:30.893Z,7.72
2023-01-29T05:41:39.941Z,7.23
2023-01-29T05:44:17.488Z,7.28
2023-01-29T05:49:26.104Z,7.36
2023-01-29T05:54:35.653Z,9.00
2023-01-29T05:59:44.563Z,7.66
2023-01-29T06:04:54.406Z,7.11
2023-01-29T06:10:04.227Z,7.64
2023-01-29T06:15:13.775Z,7.92
2023-01-29T06:20:22.537Z,7.80
2023-01-29T06:25:31.551Z,7.88
2023-01-29T06:30:40.558Z,7.83
2023-01-29T06:35:50.022Z,7.76
2023-01-29T06:40:58.371Z,7.11
2023-01-29T06:46:07.878Z,7.31
2023-01-29T06:51:16.383Z,7.34
2023-01-29T06:56:25.692Z,7.44
2023-01-29T07:01:36.427Z,6.83
2023-01-29T07:06:43.041Z,6.82
2023-01-29T07:11:51.480Z,6.21
2023-01-29T07:17:00.560Z,5.92
2023-01-29T07:22:09.510Z,5.14
2023-01-29T07:27:19.428Z,5.51
2023-01-29T07:32:27.860Z,5.61
2023-01-29T07:37:36.958Z,5.44
2023-01-29T07:42:45.717Z,4.72
2023-01-29T07:47:54.841Z,4.30
2023-01-29T07:53:03.327Z,4.48
2023-01-29T07:58:12.037Z,4.65
2023-01-29T08:03:20.844Z,4.46
2023-01-29T08:08:29.958Z,4.45
2023-01-29T08:13:38.540Z,4.06
2023-01-29T08:18:47.427Z,4.27
2023-01-29T08:23:55.838Z,4.22
2023-01-29T08:29:05.140Z,4.33
2023-01-29T08:34:13.471Z,4.27
2023-01-29T08:39:22.094Z,4.19
2023-01-29T08:44:30.365Z,4.29
2023-01-29T08:49:39.154Z,4.04
2023-01-29T08:54:47.984Z,3.83
2023-01-29T08:59:56.593Z,3.73
2023-01-29T09:05:05.422Z,3.63
2023-01-29T09:10:14.392Z,3.70
2023-01-29T09:15:23.110Z,3.40
2023-01-29T09:20:32.285Z,2.89
2023-01-29T09:25:40.981Z,3.00
2023-01-29T09:30:50.511Z,2.64
2023-01-29T09:35:58.852Z,2.88
2023-01-29T09:41:07.860Z,2.79
2023-01-29T09:46:16.341Z,2.42
2023-01-29T09:51:25.794Z,2.64
2023-01-29T09:56:34.224Z,2.32
2023-01-29T10:01:43.487Z,2.31
2023-01-29T10:06:52.097Z,2.30
2023-01-29T10:12:01.394Z,2.47
2023-01-29T10:17:10.368Z,2.71
2023-01-29T10:22:19.379Z,2.62
2023-01-29T10:27:31.612Z,2.74
2023-01-29T10:32:31.064Z,2.98
2023-01-29T10:37:39.379Z,2.81
2023-01-29T10:42:48.392Z,2.85
2023-01-29T10:47:57.304Z,2.98
2023-01-29T10:53:06.771Z,3.35
2023-01-29T10:58:15.851Z,3.59
2023-01-29T11:03:28.486Z,3.16
2023-01-29T11:08:33.295Z,3.80
2023-01-29T11:13:42.094Z,3.44
2023-01-29T11:18:50.791Z,5.08
2023-01-29T11:24:00.605Z,4.43
2023-01-29T11:29:09.206Z,3.70
2023-01-29T11:34:18.229Z,3.53
2023-01-29T11:39:26.841Z,2.92
2023-01-29T11:44:36.305Z,2.56
2023-01-29T11:49:45.192Z,2.57
2023-01-29T11:54:53.755Z,2.60
2023-01-29T12:00:02.283Z,2.86
2023-01-29T12:05:11.764Z,3.48
2023-01-29T12:10:20.542Z,3.01
2023-01-29T12:15:29.331Z,2.84
2023-01-29T12:20:37.981Z,3.85
2023-01-29T12:25:47.042Z,3.93
2023-01-29T12:30:56.035Z,3.59
2023-01-29T12:36:05.399Z,3.34
2023-01-29T12:41:13.992Z,3.31
2023-01-29T12:46:23.101Z,3.09
2023-01-29T12:51:31.936Z,3.16
2023-01-29T12:56:40.857Z,2.94
2023-01-29T13:01:49.722Z,2.87
2023-01-29T13:06:58.552Z,2.55
2023-01-29T13:12:07.300Z,3.11
2023-01-29T13:17:16.453Z,2.89
2023-01-29T13:22:24.984Z,3.03
2023-01-29T13:27:34.867Z,2.67
2023-01-29T13:32:43.333Z,2.60
2023-01-29T13:37:51.904Z,2.39
2023-01-29T13:43:00.794Z,3.15
2023-01-29T13:48:09.531Z,2.60
2023-01-29T13:53:18.443Z,6.13
2023-01-29T13:58:27.592Z,4.44
2023-01-29T14:03:56.453Z,5.30
2023-01-29T14:08:45.635Z,4.28
2023-01-29T14:13:54.500Z,3.21
2023-01-29T14:19:03.641Z,3.07
2023-01-29T14:24:12.761Z,3.39
2023-01-29T14:29:33.769Z,3.05
2023-01-29T14:34:29.860Z,3.13
2023-01-29T14:39:39.924Z,3.24
2023-01-29T14:44:38.365Z,2.89
2023-01-29T14:49:47.471Z,2.57
2023-01-29T14:54:56.541Z,2.70
2023-01-29T15:00:05.670Z,2.74
2023-01-29T15:05:14.336Z,2.85
2023-01-29T15:10:23.630Z,2.61
2023-01-29T15:15:31.986Z,2.91
2023-01-29T15:20:40.797Z,2.50
2023-01-29T15:25:49.563Z,2.22
2023-01-29T15:30:58.020Z,2.52
2023-01-29T15:36:08.221Z,2.34
2023-01-29T15:41:15.024Z,2.34
2023-01-29T15:46:23.984Z,2.18
2023-01-29T15:51:33.240Z,2.21
2023-01-29T15:56:41.795Z,2.30
2023-01-29T16:01:51.334Z,2.38
2023-01-29T16:07:00.379Z,2.25
2023-01-29T16:12:09.627Z,2.19
2023-01-29T16:17:18.225Z,2.01
2023-01-29T16:22:27.713Z,2.35
2023-01-29T16:27:36.368Z,2.32
2023-01-29T16:32:45.724Z,2.34
2023-01-29T16:37:54.613Z,2.29
2023-01-29T16:43:03.544Z,2.25
2023-01-29T16:48:12.876Z,2.28
2023-01-29T16:53:22.747Z,2.54
2023-01-29T16:58:31.799Z,2.59
2023-01-29T17:03:40.615Z,3.06
2023-01-29T17:08:49.548Z,3.25
2023-01-29T17:13:58.504Z,2.96
2023-01-29T17:19:07.900Z,2.87
2023-01-29T17:24:16.780Z,2.78
2023-01-29T17:29:25.548Z,3.09
2023-01-29T17:34:34.956Z,3.12
2023-01-29T17:39:46.227Z,3.42
2023-01-29T17:44:46.103Z,3.46
2023-01-29T17:49:54.651Z,3.79
2023-01-29T17:55:06.534Z,3.69
2023-01-29T18:00:06.002Z,3.82
2023-01-29T18:05:16.186Z,3.76
2023-01-29T18:10:23.879Z,3.83
2023-01-29T18:15:33.221Z,3.97
2023-01-29T18:20:42.370Z,4.17
2023-01-29T18:25:52.033Z,4.16
2023-01-29T18:31:01.607Z,4.14
2023-01-29T18:36:11.822Z,4.49
2023-01-29T18:41:10.776Z,4.36
2023-01-29T18:46:20.441Z,4.69
2023-01-29T18:51:29.657Z,4.44
2023-01-29T18:56:39.252Z,4.39
2023-01-29T19:01:47.963Z,4.32
2023-01-29T19:06:57.439Z,4.03
2023-01-29T19:12:07.139Z,4.21
2023-01-29T19:17:16.906Z,4.45
2023-01-29T19:22:26.297Z,3.97
2023-01-29T19:27:35.128Z,4.32
2023-01-29T19:32:43.696Z,4.54
2023-01-29T19:37:52.713Z,4.29
2023-01-29T19:43:01.909Z,4.46
2023-01-29T19:48:11.472Z,4.10
2023-01-29T19:53:21.582Z,4.41
2023-01-29T19:58:21.088Z,4.45
2023-01-29T20:03:30.055Z,4.10
2023-01-29T20:08:38.740Z,4.22
2023-01-29T20:13:47.222Z,4.29
2023-01-29T20:18:56.245Z,3.93
2023-01-29T20:24:05.245Z,4.08
2023-01-29T20:29:14.763Z,4.16
2023-01-29T20:34:24.115Z,4.10
2023-01-29T20:39:33.462Z,4.48
2023-01-29T20:44:42.273Z,4.46
2023-01-29T20:49:51.170Z,4.84
2023-01-29T20:55:00.044Z,4.76
2023-01-29T21:00:08.867Z,4.83
2023-01-29T21:05:18.615Z,4.85
2023-01-29T21:10:27.771Z,4.98
2023-01-29T21:15:36.541Z,5.07
2023-01-29T21:20:45.727Z,4.96
2023-01-29T21:25:54.829Z,5.14
2023-01-29T21:31:04.199Z,5.60
2023-01-29T21:36:12.814Z,5.46
2023-01-29T21:41:22.202Z,6.64
2023-01-29T21:46:31.157Z,5.50
2023-01-29T21:51:40.209Z,5.62
2023-01-29T21:56:49.029Z,5.70
2023-01-29T22:01:58.021Z,5.73
2023-01-29T22:07:06.626Z,5.88
2023-01-29T22:12:15.613Z,6.25
2023-01-29T22:17:24.212Z,6.21
2023-01-29T22:22:33.382Z,6.16
2023-01-29T22:27:41.962Z,6.13
2023-01-29T22:32:51.477Z,6.40
2023-01-29T22:38:00.474Z,6.09
2023-01-29T22:43:09.298Z,6.42
2023-01-29T22:48:19.082Z,6.49
2023-01-29T22:53:27.805Z,6.50
2023-01-29T22:58:36.718Z,6.36
2023-01-29T23:03:47.554Z,6.32
2023-01-29T23:08:45.886Z,6.39
2023-01-29T23:13:54.728Z,6.11
2023-01-29T23:19:04.088Z,6.35
2023-01-29T23:24:13.407Z,6.12
2023-01-29T23:29:21.881Z,6.24
2023-01-29T23:34:31.016Z,6.14
2023-01-29T23:39:39.581Z,6.31
2023-01-29T23:44:49.167Z,6.38
2023-01-29T23:49:57.599Z,6.05
2023-01-29T23:55:06.469Z,6.36
